KSVC/SVC METAR and TAF weather

Enter ICAO airport designator
Station Type Date Time Source
KSVC METAR 2020/08/12 17:35 UTC NOAA

KSVC 121735Z AUTO 00000KT 10SM SCT100 SCT120 33/04 A3018 RMK AO2 T03300042


Station Type Date Time Source
KSVC Decoded METAR 2020/08/12 17:35 UTC NOAA

Silver City / Grant, NM, United States (KSVC) 32-38N 108-09W
Aug 12, 2020 - 01:35 PM EDT / 2020.08.12 1735 UTC
Wind: Calm:0
Visibility: 10 mile(s):0
Sky conditions: partly cloudy
Temperature: 91.4 F (33.0 C)
Dew Point: 39.6 F (4.2 C)
Relative Humidity: 16%
Pressure (altimeter): 30.18 in. Hg (1022 hPa)
ob: KSVC 121735Z AUTO 00000KT 10SM SCT100 SCT120 33/04 A3018 RMK AO2 T03300042
cycle: 17

Station Type Date Time Source
KSVC TAF UTC NOAA

Error!

Example: see airport list